• Join FlightAware (Why Join?)
  • Login
  • US Flag 
09:55PM EST


 

Airport Tracker/Info


-or-


 

Live Flight TrackerFlight Track Log ✈ ACA677 ✈ 21-Apr-2013 ✈ CYHZ - CYUL

Flight Track Log - Related Links

Times and Time Zones

All times are in EDT time to prevent confusion due to time zone crossing. See the ACA677 flight status page for this flight to view local times or setup timezone preferences in your user account.

Time Position Orientation Groundspeed Altitude Reporting Facility
EDT Latitude Longitude Course Direction KTS MPH feet Rate Location/Type
08:26PM 44.9000 -63.4833 290° West 160 184 2,900  Level Moncton Center
08:27PM 44.9333 -63.4833 360° North 180 207 5,800 2,640 Climbing Moncton Center
08:28PM 44.9667 -63.5667 300° West 250 288 8,200 2,700 Climbing Moncton Center
08:29PM 45.0118 -64.0140 290° West  Level FlightAware Approximate
08:29PM 44.9833 -63.6333 289° West 260 299 11,200  Level Moncton Center
08:30PM 45.0501 -64.1417 294° West  Level FlightAware Approximate
08:30PM 45.0333 -63.7500 301° West 310 357 13,900  Level Moncton Center
08:31PM 45.0841 -64.2707 286° West  Level FlightAware Approximate
08:31PM 45.0667 -63.8833 290° West 310 357 16,600  Level Moncton Center
08:32PM 45.1204 -64.3982 290° West  Level FlightAware Approximate
08:32PM 45.0833 -64.0000 281° West 320 368 18,600  Level Moncton Center
08:33PM 45.1000 -64.1333 280° West 320 368 21,300 2,400 Climbing Moncton Center
08:34PM 45.1167 -64.2500 281° West 330 380 23,400 2,100 Climbing Moncton Center
08:35PM 45.1333 -64.4000 279° West 340 391 25,600 1,800 Climbing Moncton Center
08:36PM 45.1500 -64.5167 281° West 340 391 27,100 1,500 Climbing Moncton Center
08:37PM 45.1667 -64.6500 280° West 340 391 28,700 1,500 Climbing Moncton Center
08:38PM 45.1833 -64.7833 280° West 340 391 30,200 1,320 Climbing Moncton Center
08:39PM 45.2000 -64.9167 280° West 340 391 31,400 1,680 Climbing Moncton Center
08:40PM 45.2167 -65.0333 282° West 330 380 33,600 1,560 Climbing Moncton Center
08:41PM 45.2167 -65.1500 270° West 320 368 34,600 600 Climbing Moncton Center
08:42PM 45.2333 -65.3000 279° West 330 380 34,900 480 Climbing Moncton Center
08:43PM 45.2500 -65.4167 282° West 340 391 35,600 660 Climbing Moncton Center
08:44PM 45.2667 -65.5667 279° West 350 403 36,300 660 Climbing Moncton Center
08:45PM 45.2833 -65.7000 280° West 350 403 37,000 600 Climbing Moncton Center
08:46PM 45.3000 -65.8500 279° West 350 403 37,500 480 Climbing Moncton Center
08:47PM 45.3167 -65.9667 282° West 350 403 38,000 240 Climbing Moncton Center
08:48PM 45.3333 -66.1167 279° West 360 414 38,000  Level Moncton Center
08:49PM 45.3667 -66.2500 290° West 360 414 38,000  Level Moncton Center
08:50PM 45.3667 -66.4000 270° West 360 414 38,000  Level Moncton Center
08:51PM 45.3833 -66.5333 280° West 370 426 38,000  Level Moncton Center
08:52PM 45.4000 -66.6833 279° West 370 426 38,000  Level Moncton Center
08:53PM 45.4167 -66.8500 278° West 380 437 38,000  Level Moncton Center
08:54PM 45.4333 -67.0000 279° West 380 437 38,000  Level Moncton Center
08:55PM 45.4333 -67.1333 270° West 380 437 38,000  Level Moncton Center
08:56PM 45.4500 -67.2833 279° West 380 437 38,000  Level Moncton Center
08:57PM 45.4667 -67.4500 278° West 370 426 38,000  Level Moncton Center
08:58PM 45.4833 -67.6000 279° West 380 437 38,000  Level Moncton Center
08:59PM 45.5081 -67.6447 308° West 385 443 38,000  Level Boston Center
09:00PM 45.5222 -67.7917 278° West 385 443 38,000  Level Boston Center
09:00PM 45.5167 -67.8833 265° West 370 426 38,000  Level Moncton Center
09:01PM 45.5333 -68.0333 279° West 380 437 38,000  Level Moncton Center
09:02PM 45.5500 -68.1667 280° West 380 437 38,000  Level Moncton Center
09:03PM 45.5625 -68.2422 283° West 391 450 38,000  Level Boston Center
09:04PM 45.5739 -68.3928 276° West 386 444 38,000  Level Boston Center
09:05PM 45.5894 -68.5428 278° West 386 444 38,000  Level Boston Center
09:06PM 45.6133 -68.6925 283° West 386 444 38,000  Level Boston Center
09:07PM 45.6367 -68.8425 283° West 391 450 38,000  Level Boston Center
09:08PM 45.6578 -68.9897 282° West 386 444 38,000  Level Boston Center
09:09PM 45.6808 -69.1400 282° West 386 444 38,000  Level Boston Center
09:10PM 45.7017 -69.2903 281° West 391 450 38,000  Level Boston Center
09:10PM 45.7000 -69.3833 269° West 390 449 38,000  Level Moncton Center
09:11PM 45.7167 -69.5333 279° West 390 449 38,000  Level Moncton Center
09:12PM 45.7500 -69.6667 290° West 380 437 38,000  Level Moncton Center
09:13PM 45.7692 -69.7389 291° West 391 450 38,000  Level Boston Center
09:14PM 45.7914 -69.8894 282° West 391 450 38,000  Level Boston Center
09:15PM 45.8114 -70.0436 281° West 391 450 38,000  Level Boston Center
09:16PM 45.8353 -70.1975 283° West 391 450 38,000  Level Boston Center
09:17PM 45.8547 -70.3486 281° West 391 450 38,000  Level Boston Center
09:17PM 45.8500 -70.4333 265° West 390 449 38,000  Level Moncton Center
09:18PM 45.8667 -70.6000 278° West 390 449 38,000 -240 Level Moncton Center
09:19PM 45.9000 -70.7500 288° West 390 449 37,600 -660 Descending Moncton Center
09:20PM 45.9000 -70.9000 270° West 390 449 36,700 -1,020 Descending Moncton Center
09:21PM 45.9000 -71.0667 270° West 370 426 35,600 -1,020 Descending Moncton Center
09:22PM 45.8833 -71.1833 258° West 360 414 34,700 -1,020 Descending Moncton Center
09:23PM 45.8667 -71.3500 262° West 350 403 33,600 -1,380 Descending Moncton Center
09:24PM 45.8500 -71.4667 258° West 350 403 32,000 -1,680 Descending Moncton Center
09:25PM 45.8500 -71.6167 270° West 340 391 30,300 -1,800 Descending Moncton Center
09:26PM 45.8333 -71.7333 258° West 330 380 28,500 -1,740 Descending Moncton Center
09:27PM 45.8333 -71.8500 270° West 320 368 26,900 -1,680 Descending Moncton Center
09:28PM 45.8000 -71.9833 250° West 310 357 25,200 -1,680 Descending Moncton Center
09:29PM 45.8000 -72.1000 270° West 310 357 23,600 -1,620 Descending Moncton Center
09:30PM 45.7833 -72.2333 260° West 310 357 22,000 -1,620 Descending Moncton Center
09:31PM 45.7833 -72.3500 270° West 300 345 20,400 -1,620 Descending Moncton Center
09:32PM 45.7667 -72.4333 254° West 290 334 18,800 -1,440 Descending Montreal Center
09:33PM 45.7500 -72.5500 258° West 290 334 17,500 -1,560 Descending Montreal Center
09:34PM 45.7500 -72.6500 270° West 290 334 15,700 -1,680 Descending Montreal Center
09:35PM 45.7333 -72.7667 258° West 280 322 14,200 -1,500 Descending Montreal Center
09:36PM 45.7167 -72.8667 257° West 280 322 12,800 -1,440 Descending Montreal Center
09:37PM 45.7167 -72.9833 270° West 280 322 11,400 -1,620 Descending Montreal Center
09:38PM 45.7000 -73.0833 257° West 270 311 9,600 -1,800 Descending Montreal Center
09:39PM 45.6833 -73.2167 260° West 270 311 7,800 -1,800 Descending Montreal Center
09:40PM 45.6667 -73.3000 254° West 270 311 6,000 -1,320 Descending Montreal Center
09:41PM 45.6500 -73.4000 257° West 250 288 5,200 -1,020 Descending Montreal Center
09:42PM 45.6333 -73.5000 257° West 230 265 4,000 -840 Descending Montreal Center
09:43PM 45.6000 -73.5667 234° Southwest 210 242 3,600 -780 Descending Montreal Center
09:44PM 45.5667 -73.6000 215° Southwest 180 207 2,500 -1,140 Descending Montreal Center